Time;durP1;ratioP1;P1;durP2;ratioP2;P2;SDS_P1;SDS_P2;PMS_P1;PMS_P2;Temp;Humidity;BMP_temperature;BMP_pressure;BME280_temperature;BME280_humidity;BME280_pressure;Samples;Min_cycle;Max_cycle;Signal;HPM_P1;HPM_P2
2021/11/13 00:02:07;;;;;;;37.53;23.17;;;8.90;99.90;;;;;;5026551;28;20072;-89
2021/11/13 00:04:33;;;;;;;38.70;23.65;;;8.90;99.90;;;;;;5030885;28;20366;-91
2021/11/13 00:06:59;;;;;;;39.42;24.45;;;8.90;99.90;;;;;;5032187;28;20041;-90
2021/11/13 00:09:24;;;;;;;40.97;24.42;;;9.00;99.90;;;;;;5035885;28;20520;-89
2021/11/13 00:11:50;;;;;;;40.40;23.45;;;9.00;99.90;;;;;;5031625;28;20397;-93
2021/11/13 00:14:20;;;;;;;40.42;23.00;;;9.00;99.90;;;;;;5024829;28;20030;-92
2021/11/13 00:16:46;;;;;;;39.75;24.05;;;9.00;99.90;;;;;;5024570;28;20492;-92
2021/11/13 00:19:12;;;;;;;39.95;23.63;;;9.00;99.90;;;;;;5031985;28;20028;-93
2021/11/13 00:21:38;;;;;;;39.97;24.38;;;9.00;99.90;;;;;;5028123;28;20021;-92
2021/11/13 00:24:04;;;;;;;42.90;24.33;;;9.00;99.90;;;;;;5034019;28;20076;-93
2021/11/13 00:26:30;;;;;;;41.30;24.33;;;9.00;99.90;;;;;;5034921;28;20026;-93
2021/11/13 00:28:56;;;;;;;42.20;23.60;;;9.00;99.90;;;;;;5035274;28;20032;-91
2021/11/13 00:31:21;;;;;;;41.97;24.27;;;9.00;99.90;;;;;;5033721;28;20025;-90
2021/11/13 00:33:47;;;;;;;37.65;23.90;;;9.00;99.90;;;;;;5035173;28;20049;-92
2021/11/13 00:36:13;;;;;;;43.67;24.92;;;9.10;99.90;;;;;;5034358;28;20021;-89
2021/11/13 00:38:38;;;;;;;41.17;24.25;;;9.10;99.90;;;;;;5035299;28;20009;-91
2021/11/13 00:41:04;;;;;;;39.45;23.15;;;9.10;99.90;;;;;;5035947;28;20025;-91
2021/11/13 00:43:30;;;;;;;41.55;24.10;;;9.10;99.90;;;;;;5031617;28;20068;-91
2021/11/13 00:45:55;;;;;;;37.25;22.80;;;9.10;99.90;;;;;;5034105;28;20156;-92
2021/11/13 00:48:21;;;;;;;40.40;23.25;;;9.10;99.90;;;;;;5034639;28;20041;-91
2021/11/13 00:50:47;;;;;;;38.70;22.17;;;9.20;99.90;;;;;;5035258;28;20029;-91
2021/11/13 00:53:13;;;;;;;34.15;22.17;;;9.20;99.90;;;;;;5047843;28;20029;-91
2021/11/13 00:55:38;;;;;;;36.67;22.85;;;9.20;99.90;;;;;;5040312;28;20033;-89
2021/11/13 00:58:04;;;;;;;35.92;23.02;;;9.20;99.90;;;;;;5034997;28;20028;-91
2021/11/13 01:00:29;;;;;;;34.15;22.05;;;9.20;99.90;;;;;;5033009;28;20068;-90
2021/11/13 01:02:55;;;;;;;36.83;21.83;;;9.20;99.90;;;;;;5034074;28;20419;-88
2021/11/13 01:05:21;;;;;;;34.20;21.20;;;9.20;99.90;;;;;;5033359;28;20032;-90
2021/11/13 01:07:47;;;;;;;38.05;22.58;;;9.20;99.90;;;;;;5034344;28;20044;-89
2021/11/13 01:10:16;;;;;;;32.45;20.27;;;9.30;99.90;;;;;;5031760;28;20061;-91
2021/11/13 01:12:42;;;;;;;34.45;21.20;;;9.30;99.90;;;;;;5030814;28;20030;-91
2021/11/13 01:15:10;;;;;;;32.88;20.33;;;9.30;99.90;;;;;;5035961;28;20466;-90
2021/11/13 01:17:36;;;;;;;37.03;20.58;;;9.30;99.90;;;;;;5028947;28;20036;-89
2021/11/13 01:20:02;;;;;;;35.30;21.20;;;9.40;99.90;;;;;;5016689;28;20017;-90
2021/11/13 01:22:27;;;;;;;31.75;20.30;;;9.40;99.90;;;;;;5030513;28;20026;-89
2021/11/13 01:24:53;;;;;;;33.22;20.08;;;9.40;99.90;;;;;;5024763;28;20036;-90
2021/11/13 01:27:19;;;;;;;34.00;20.95;;;9.40;99.90;;;;;;5034792;28;20050;-90
2021/11/13 01:29:44;;;;;;;29.67;20.52;;;9.40;99.90;;;;;;5034165;28;20087;-90
2021/11/13 01:32:10;;;;;;;33.72;20.40;;;9.40;99.90;;;;;;5023134;28;20030;-91
2021/11/13 01:34:39;;;;;;;33.95;20.55;;;9.40;99.90;;;;;;5034402;28;20049;-92
2021/11/13 01:37:05;;;;;;;31.63;21.02;;;9.40;99.90;;;;;;5038408;28;20029;-91
2021/11/13 01:39:30;;;;;;;34.35;21.63;;;9.40;99.90;;;;;;5050100;28;20030;-92
2021/11/13 01:41:58;;;;;;;33.97;21.50;;;9.40;99.90;;;;;;5026305;28;20022;-91
2021/11/13 01:44:24;;;;;;;30.55;20.67;;;9.40;99.90;;;;;;5032901;28;20120;-90
2021/11/13 01:46:50;;;;;;;30.88;20.73;;;9.40;99.90;;;;;;5037799;28;20128;-92
2021/11/13 01:49:15;;;;;;;33.88;22.25;;;9.40;99.90;;;;;;5031721;28;20060;-91
2021/11/13 01:51:45;;;;;;;30.90;21.00;;;9.40;99.90;;;;;;5032009;28;20512;-92
2021/11/13 01:54:10;;;;;;;29.63;20.92;;;9.40;99.90;;;;;;5032257;28;20025;-93
2021/11/13 01:56:40;;;;;;;30.23;20.00;;;9.40;99.90;;;;;;5031571;28;20457;-94
2021/11/13 01:59:07;;;;;;;33.33;20.85;;;9.50;99.90;;;;;;5032396;28;20063;-94
2021/11/13 02:01:33;;;;;;;36.05;22.02;;;9.40;99.90;;;;;;5031055;28;20133;-93
2021/11/13 02:03:59;;;;;;;35.25;22.35;;;9.40;99.90;;;;;;5038686;28;20358;-93
2021/11/13 02:06:25;;;;;;;39.10;24.25;;;9.40;99.90;;;;;;5033275;28;20040;-94
2021/11/13 02:08:52;;;;;;;33.50;21.30;;;9.40;99.90;;;;;;5033409;28;20044;-92
2021/11/13 02:11:20;;;;;;;33.08;21.75;;;9.40;99.90;;;;;;5045492;28;20108;-92
2021/11/13 02:13:46;;;;;;;35.72;22.70;;;9.40;99.90;;;;;;5035058;28;20493;-93
2021/11/13 02:16:12;;;;;;;35.75;23.58;;;9.40;99.90;;;;;;5048901;28;20044;-92
2021/11/13 02:18:39;;;;;;;34.97;22.25;;;9.40;99.90;;;;;;5040060;28;20544;-92
2021/11/13 02:21:06;;;;;;;35.35;22.83;;;9.40;99.90;;;;;;5047425;28;20024;-92
2021/11/13 02:23:32;;;;;;;38.17;23.25;;;9.40;99.90;;;;;;5051641;28;20067;-91
2021/11/13 02:25:58;;;;;;;34.42;22.30;;;9.40;99.90;;;;;;5052355;28;20179;-93
2021/11/13 02:28:26;;;;;;;39.65;24.38;;;9.50;99.90;;;;;;5023658;28;20129;-92
2021/11/13 02:30:57;;;;;;;35.95;21.55;;;9.50;99.90;;;;;;5026371;28;20017;-92
2021/11/13 02:33:23;;;;;;;33.13;22.55;;;9.50;99.90;;;;;;5033425;28;20096;-91
2021/11/13 02:35:51;;;;;;;39.13;23.20;;;9.50;99.90;;;;;;5058294;28;20107;-91
2021/11/13 02:38:29;;;;;;;33.70;22.55;;;9.60;99.90;;;;;;5031484;28;20031;-91
2021/11/13 02:40:57;;;;;;;33.05;21.98;;;9.60;99.90;;;;;;5034661;28;20032;-93
2021/11/13 02:43:25;;;;;;;29.52;20.63;;;9.60;99.90;;;;;;5045245;28;20026;-91
2021/11/13 02:45:53;;;;;;;33.72;21.65;;;9.60;99.90;;;;;;5045369;28;20068;-91
2021/11/13 02:48:20;;;;;;;31.25;21.67;;;9.60;99.90;;;;;;5018522;28;20044;-93
2021/11/13 02:50:46;;;;;;;35.65;22.05;;;9.60;99.90;;;;;;5055759;28;20024;-93
2021/11/13 02:53:16;;;;;;;31.65;21.20;;;9.70;99.90;;;;;;5047757;28;20037;-94
2021/11/13 02:55:42;;;;;;;36.53;23.75;;;9.70;99.90;;;;;;5031927;28;20138;-94
2021/11/13 02:58:07;;;;;;;39.78;24.30;;;9.70;99.90;;;;;;5043540;28;20140;-94
2021/11/13 03:00:33;;;;;;;38.60;23.25;;;9.80;99.90;;;;;;5046050;28;20034;-92
2021/11/13 03:02:59;;;;;;;38.65;22.90;;;9.70;99.90;;;;;;5039217;28;20078;-92
2021/11/13 03:05:33;;;;;;;39.47;23.67;;;9.80;99.90;;;;;;5034056;28;20026;-93
2021/11/13 03:08:05;;;;;;;37.85;24.85;;;9.80;99.90;;;;;;5051783;28;20040;-93
2021/11/13 03:10:36;;;;;;;38.95;25.20;;;9.80;99.90;;;;;;5032456;28;20017;-93
2021/11/13 03:13:02;;;;;;;41.40;24.45;;;9.80;99.90;;;;;;5034262;28;20029;-93
2021/11/13 03:15:28;;;;;;;38.38;23.13;;;9.80;99.90;;;;;;5026364;28;20029;-93
2021/11/13 03:17:55;;;;;;;36.10;24.45;;;9.90;99.90;;;;;;5043612;28;20021;-93
2021/11/13 03:20:26;;;;;;;37.28;23.65;;;9.90;99.90;;;;;;5048270;28;20025;-94
2021/11/13 03:22:52;;;;;;;35.88;22.23;;;9.90;99.90;;;;;;5043693;28;20024;-93
2021/11/13 03:25:21;;;;;;;38.92;23.40;;;9.90;99.90;;;;;;5028997;28;20017;-95
2021/11/13 03:28:00;;;;;;;40.13;24.15;;;9.90;99.90;;;;;;5028472;28;20068;-93
2021/11/13 03:30:26;;;;;;;34.30;22.33;;;10.00;99.90;;;;;;5045082;28;20026;-92
2021/11/13 03:32:52;;;;;;;34.30;23.75;;;9.90;99.90;;;;;;5056176;28;20029;-93
2021/11/13 03:35:27;;;;;;;36.90;23.05;;;9.90;99.90;;;;;;5033580;28;20477;-93
2021/11/13 03:37:55;;;;;;;34.20;21.60;;;10.00;99.90;;;;;;5028048;28;20052;-92
2021/11/13 03:40:20;;;;;;;33.10;21.80;;;10.00;99.90;;;;;;5029800;28;20514;-93
2021/11/13 03:42:46;;;;;;;40.67;21.63;;;10.00;99.90;;;;;;5045238;28;20025;-92
2021/11/13 03:45:12;;;;;;;35.78;22.92;;;10.00;99.90;;;;;;5031783;28;20037;-93
2021/11/13 03:47:37;;;;;;;34.03;21.98;;;10.00;99.90;;;;;;5034651;28;20497;-93
2021/11/13 03:50:05;;;;;;;34.55;21.17;;;10.00;99.90;;;;;;5034350;28;20028;-93
2021/11/13 03:52:30;;;;;;;32.17;20.70;;;10.00;99.90;;;;;;5033429;28;20044;-92
2021/11/13 03:54:56;;;;;;;35.58;20.75;;;10.00;99.90;;;;;;5035020;28;20413;-91
2021/11/13 03:57:21;;;;;;;33.20;21.02;;;10.10;99.90;;;;;;5033441;28;20029;-92
2021/11/13 03:59:48;;;;;;;34.05;21.15;;;10.00;99.90;;;;;;5020342;28;20137;-91
2021/11/13 04:02:15;;;;;;;36.65;21.50;;;10.00;99.90;;;;;;5032946;28;20029;-92
2021/11/13 04:04:42;;;;;;;27.90;19.73;;;10.10;99.90;;;;;;5024132;28;20025;-91
2021/11/13 04:07:08;;;;;;;27.85;18.70;;;10.10;99.90;;;;;;5029531;28;20042;-91
2021/11/13 04:09:34;;;;;;;33.70;19.85;;;10.10;99.90;;;;;;5027821;28;20029;-90
2021/11/13 04:12:03;;;;;;;30.02;19.42;;;10.10;99.90;;;;;;5034041;28;20042;-91
2021/11/13 04:14:33;;;;;;;26.90;19.58;;;10.10;99.90;;;;;;5032839;28;20022;-92
2021/11/13 04:16:59;;;;;;;32.63;19.20;;;10.10;99.90;;;;;;5028162;28;20436;-91
2021/11/13 04:19:25;;;;;;;30.17;20.00;;;10.10;99.90;;;;;;5023465;28;20038;-92
2021/11/13 04:21:50;;;;;;;29.67;20.13;;;10.10;99.90;;;;;;5027141;28;20075;-91
2021/11/13 04:24:16;;;;;;;27.73;19.60;;;10.10;99.90;;;;;;5046949;28;20094;-90
2021/11/13 04:26:41;;;;;;;31.48;20.30;;;10.20;99.90;;;;;;5034624;28;20094;-90
2021/11/13 04:29:07;;;;;;;30.27;19.27;;;10.20;99.90;;;;;;5033263;28;20029;-91
2021/11/13 04:31:32;;;;;;;30.25;20.33;;;10.20;99.90;;;;;;5023670;28;20029;-90
2021/11/13 04:34:01;;;;;;;28.85;20.17;;;10.20;99.90;;;;;;5034002;28;20033;-90
2021/11/13 04:36:32;;;;;;;32.65;20.55;;;10.20;99.90;;;;;;5021079;28;20049;-89
2021/11/13 04:38:58;;;;;;;30.42;20.00;;;10.20;99.90;;;;;;5032880;28;20034;-90
2021/11/13 04:41:23;;;;;;;30.60;20.52;;;10.20;99.90;;;;;;5034851;28;20524;-90
2021/11/13 04:43:49;;;;;;;29.17;20.35;;;10.20;99.90;;;;;;5034282;28;20112;-90
2021/11/13 04:46:14;;;;;;;28.38;19.75;;;10.20;99.90;;;;;;5028431;28;20029;-91
2021/11/13 04:48:40;;;;;;;26.48;18.58;;;10.20;99.90;;;;;;5033343;28;20033;-89
2021/11/13 04:51:05;;;;;;;25.30;17.90;;;10.20;99.90;;;;;;5034205;28;20032;-94
2021/11/13 04:53:31;;;;;;;28.20;18.42;;;10.20;99.90;;;;;;5030622;28;20514;-91
2021/11/13 04:55:57;;;;;;;27.67;19.00;;;10.30;99.90;;;;;;5027772;28;20025;-91
2021/11/13 04:58:22;;;;;;;25.23;17.92;;;10.30;99.90;;;;;;5027947;28;20033;-92
2021/11/13 05:00:48;;;;;;;28.05;18.80;;;10.20;99.90;;;;;;5040371;28;20029;-89
2021/11/13 05:03:14;;;;;;;26.92;18.25;;;10.30;99.90;;;;;;5054533;28;20603;-88
2021/11/13 05:05:39;;;;;;;25.25;17.17;;;10.20;99.90;;;;;;5026870;28;20093;-89
2021/11/13 05:08:05;;;;;;;28.63;18.67;;;10.30;99.90;;;;;;5051065;28;20064;-89
2021/11/13 05:10:31;;;;;;;25.48;17.95;;;10.20;99.90;;;;;;5040719;28;20912;-90
2021/11/13 05:12:57;;;;;;;25.27;18.67;;;10.30;99.90;;;;;;5032076;28;20029;-89
2021/11/13 05:15:23;;;;;;;26.77;17.58;;;10.20;99.90;;;;;;5049077;28;20040;-89
2021/11/13 05:17:49;;;;;;;27.15;19.15;;;10.20;99.90;;;;;;5035828;28;20028;-89
2021/11/13 05:20:17;;;;;;;27.67;17.85;;;10.20;99.90;;;;;;5050877;28;20052;-89
2021/11/13 05:22:43;;;;;;;26.58;18.23;;;10.20;99.90;;;;;;5041371;28;20147;-90
2021/11/13 05:25:12;;;;;;;25.90;18.20;;;10.20;99.90;;;;;;5042615;28;20480;-88
2021/11/13 05:27:38;;;;;;;25.70;17.67;;;10.20;99.90;;;;;;5029110;28;20097;-90
2021/11/13 05:30:06;;;;;;;23.58;16.85;;;10.20;99.90;;;;;;5031622;28;20096;-90
2021/11/13 05:32:32;;;;;;;24.52;18.02;;;10.20;99.90;;;;;;5050016;28;20044;-90
2021/11/13 05:34:57;;;;;;;24.10;16.95;;;10.20;99.90;;;;;;5035762;28;20028;-89
2021/11/13 05:37:23;;;;;;;27.50;19.17;;;10.20;99.90;;;;;;5029389;28;20059;-88
2021/11/13 05:39:49;;;;;;;23.98;18.40;;;10.20;99.90;;;;;;5032275;28;20021;-88
2021/11/13 05:42:15;;;;;;;25.52;18.00;;;10.20;99.90;;;;;;5035279;28;20021;-88
2021/11/13 05:44:42;;;;;;;24.58;18.55;;;10.20;99.90;;;;;;5035394;28;20025;-90
2021/11/13 05:47:07;;;;;;;23.35;18.17;;;10.30;99.90;;;;;;5034040;28;20033;-88
2021/11/13 05:49:33;;;;;;;25.27;19.38;;;10.20;99.90;;;;;;5033770;28;20029;-89
2021/11/13 05:51:58;;;;;;;26.98;20.00;;;10.30;99.90;;;;;;5032493;28;20517;-88
2021/11/13 05:54:24;;;;;;;28.42;18.33;;;10.30;99.90;;;;;;5036639;28;20033;-89
2021/11/13 05:56:49;;;;;;;24.90;18.10;;;10.30;99.90;;;;;;5029832;28;20082;-88
2021/11/13 05:59:15;;;;;;;26.00;18.92;;;10.30;99.90;;;;;;5032559;28;20057;-89
2021/11/13 06:01:42;;;;;;;27.85;18.83;;;10.30;99.90;;;;;;5034746;28;20060;-88
2021/11/13 06:04:08;;;;;;;27.92;19.25;;;10.30;99.90;;;;;;5036486;28;20029;-89
2021/11/13 06:06:33;;;;;;;26.48;19.33;;;10.30;99.90;;;;;;5030812;28;20124;-88
2021/11/13 06:08:59;;;;;;;29.38;20.60;;;10.30;99.90;;;;;;5034560;28;20471;-88
2021/11/13 06:11:25;;;;;;;27.48;19.98;;;10.30;99.90;;;;;;5026742;28;20029;-89
2021/11/13 06:13:50;;;;;;;28.55;19.02;;;10.30;99.90;;;;;;5032440;28;20481;-89
2021/11/13 06:16:16;;;;;;;29.10;20.88;;;10.30;99.90;;;;;;5028722;28;20023;-88
2021/11/13 06:18:41;;;;;;;37.45;23.48;;;10.30;99.90;;;;;;5035519;28;20431;-88
2021/11/13 06:21:07;;;;;;;32.35;21.73;;;10.30;99.90;;;;;;5034388;28;20025;-88
2021/11/13 06:23:39;;;;;;;29.30;19.67;;;10.30;99.90;;;;;;5036352;28;20028;-88
2021/11/13 06:26:05;;;;;;;30.75;20.27;;;10.30;99.90;;;;;;5051532;28;20574;-89
2021/11/13 06:28:31;;;;;;;25.52;18.90;;;10.30;99.90;;;;;;5046335;28;20387;-88
2021/11/13 06:30:57;;;;;;;28.38;19.08;;;10.30;99.90;;;;;;5038984;28;20071;-89
2021/11/13 06:33:23;;;;;;;27.95;18.52;;;10.30;99.90;;;;;;5034461;28;20033;-88
2021/11/13 06:35:48;;;;;;;27.77;19.13;;;10.30;99.90;;;;;;5029767;28;20113;-89
2021/11/13 06:38:14;;;;;;;28.90;19.75;;;10.30;99.90;;;;;;5032647;28;20366;-89
2021/11/13 06:40:39;;;;;;;30.35;20.58;;;10.30;99.90;;;;;;5036820;28;20043;-89
2021/11/13 06:43:05;;;;;;;28.13;18.67;;;10.20;99.90;;;;;;5034576;28;20029;-89
2021/11/13 06:45:31;;;;;;;27.38;19.13;;;10.20;99.90;;;;;;5034635;28;20032;-90
2021/11/13 06:47:57;;;;;;;29.35;19.50;;;10.20;99.90;;;;;;5029866;28;20160;-90
2021/11/13 06:50:22;;;;;;;29.50;19.38;;;10.20;99.90;;;;;;5053543;28;20431;-90
2021/11/13 06:52:48;;;;;;;28.55;19.50;;;10.20;99.90;;;;;;5030188;28;20033;-89
2021/11/13 06:55:14;;;;;;;29.98;20.50;;;10.10;99.90;;;;;;5028850;28;20025;-90
2021/11/13 06:57:41;;;;;;;29.50;20.23;;;10.10;99.90;;;;;;5035567;28;20026;-91
2021/11/13 07:00:13;;;;;;;30.15;20.15;;;10.10;99.90;;;;;;5036669;28;20064;-89
2021/11/13 07:02:39;;;;;;;30.20;21.40;;;10.20;99.90;;;;;;5033252;28;20033;-91
2021/11/13 07:05:05;;;;;;;28.30;19.75;;;10.20;99.90;;;;;;5040189;28;20054;-91
2021/11/13 07:07:33;;;;;;;30.88;21.42;;;10.20;99.90;;;;;;5049448;28;20128;-91
2021/11/13 07:10:00;;;;;;;28.75;20.40;;;10.20;99.90;;;;;;5035577;28;20025;-91
2021/11/13 07:12:27;;;;;;;33.10;21.75;;;10.20;99.90;;;;;;5032604;28;20493;-91
2021/11/13 07:14:52;;;;;;;30.63;21.25;;;10.20;99.90;;;;;;5027549;28;20053;-89
2021/11/13 07:17:19;;;;;;;32.42;22.08;;;10.20;99.90;;;;;;5034527;28;20037;-92
2021/11/13 07:19:45;;;;;;;31.90;22.10;;;10.20;99.90;;;;;;5032794;28;20029;-91
2021/11/13 07:22:12;;;;;;;33.53;20.60;;;10.30;99.90;;;;;;5034116;28;20029;-91
2021/11/13 07:24:40;;;;;;;30.13;21.25;;;10.30;99.90;;;;;;5057385;28;20451;-90
2021/11/13 07:27:05;;;;;;;33.58;21.25;;;10.30;99.90;;;;;;5037271;28;20107;-92
2021/11/13 07:29:31;;;;;;;29.70;20.25;;;10.30;99.90;;;;;;5032893;28;20481;-92
2021/11/13 07:31:57;;;;;;;32.42;20.80;;;10.30;99.90;;;;;;5035141;28;20025;-91
2021/11/13 07:34:23;;;;;;;31.50;21.58;;;10.40;99.90;;;;;;5020546;28;20086;-91
2021/11/13 07:36:49;;;;;;;30.60;21.48;;;10.40;99.90;;;;;;5045296;28;20025;-92
2021/11/13 07:39:14;;;;;;;29.02;19.92;;;10.40;99.90;;;;;;5040183;28;20039;-89
2021/11/13 07:41:40;;;;;;;31.38;20.63;;;10.50;99.90;;;;;;5039426;28;20028;-91
2021/11/13 07:44:06;;;;;;;33.33;21.00;;;10.50;99.90;;;;;;5060045;28;20100;-87
2021/11/13 07:46:31;;;;;;;30.38;20.75;;;10.50;99.90;;;;;;5040295;28;20048;-86
2021/11/13 07:48:57;;;;;;;32.75;21.38;;;10.60;99.90;;;;;;5033287;28;20037;-89
2021/11/13 07:51:23;;;;;;;36.03;22.27;;;10.60;99.90;;;;;;5037419;28;20032;-90
2021/11/13 07:53:49;;;;;;;31.52;22.23;;;10.60;99.90;;;;;;5034386;28;20025;-90
2021/11/13 07:56:16;;;;;;;33.97;22.35;;;10.70;99.90;;;;;;5031726;28;20053;-91
2021/11/13 07:58:41;;;;;;;34.22;22.40;;;10.70;99.90;;;;;;5036257;28;20060;-89
2021/11/13 08:01:07;;;;;;;32.00;21.63;;;10.80;99.90;;;;;;5032032;28;20049;-89
2021/11/13 08:03:33;;;;;;;32.30;21.05;;;10.80;99.90;;;;;;5033792;28;20040;-89
2021/11/13 08:05:58;;;;;;;31.48;20.13;;;10.80;99.90;;;;;;5037243;28;20035;-89
2021/11/13 08:08:24;;;;;;;28.17;20.60;;;10.80;99.90;;;;;;5035732;28;20099;-89
2021/11/13 08:10:50;;;;;;;38.55;22.88;;;10.90;99.90;;;;;;5034270;28;20113;-89
2021/11/13 08:13:18;;;;;;;32.70;21.10;;;10.90;99.90;;;;;;5034745;28;20032;-89
2021/11/13 08:15:43;;;;;;;32.17;21.75;;;11.00;99.90;;;;;;5035538;28;20021;-90
2021/11/13 08:18:10;;;;;;;34.55;22.55;;;11.00;99.90;;;;;;5028098;28;20171;-89
2021/11/13 08:20:38;;;;;;;35.38;23.63;;;11.00;99.90;;;;;;5049947;28;20017;-89
2021/11/13 08:23:09;;;;;;;35.35;23.40;;;11.10;99.90;;;;;;5023112;28;20040;-89
2021/11/13 08:25:36;;;;;;;33.50;22.13;;;11.10;99.90;;;;;;5037053;28;20477;-90
2021/11/13 08:28:03;;;;;;;37.10;22.85;;;11.10;99.90;;;;;;5054848;28;20122;-90
2021/11/13 08:30:30;;;;;;;40.15;24.35;;;11.10;99.90;;;;;;5048800;28;20029;-90
2021/11/13 08:32:56;;;;;;;36.28;23.15;;;11.20;99.90;;;;;;5030575;28;20473;-90
2021/11/13 08:35:23;;;;;;;36.20;23.80;;;11.20;99.90;;;;;;5048184;28;20040;-91
2021/11/13 08:37:49;;;;;;;33.55;22.95;;;11.20;99.90;;;;;;5036782;28;20032;-90
2021/11/13 08:40:15;;;;;;;38.70;24.27;;;11.30;99.90;;;;;;5035336;28;20021;-89
2021/11/13 08:42:42;;;;;;;38.40;24.05;;;11.30;99.90;;;;;;5028580;28;20039;-91
2021/11/13 08:45:09;;;;;;;35.15;23.42;;;11.40;99.90;;;;;;5029789;28;20025;-92
2021/11/13 08:47:36;;;;;;;33.50;22.88;;;11.40;99.90;;;;;;5044245;28;20037;-91
2021/11/13 08:50:04;;;;;;;41.22;23.98;;;11.40;99.90;;;;;;5032953;28;20112;-89
2021/11/13 08:52:29;;;;;;;37.03;22.13;;;11.50;99.90;;;;;;5049814;28;20037;-92
2021/11/13 08:54:55;;;;;;;36.25;22.38;;;11.50;99.90;;;;;;5031928;28;20020;-91
2021/11/13 08:57:21;;;;;;;38.78;23.25;;;11.50;99.90;;;;;;5052679;28;20024;-92
2021/11/13 08:59:46;;;;;;;35.47;22.60;;;11.60;99.90;;;;;;5052915;28;20060;-91
2021/11/13 09:02:16;;;;;;;36.08;22.30;;;11.60;99.90;;;;;;5037531;28;20075;-91
2021/11/13 09:04:44;;;;;;;34.03;21.30;;;11.70;99.90;;;;;;5034944;28;20120;-91
2021/11/13 09:07:09;;;;;;;38.03;23.02;;;11.80;99.90;;;;;;5037785;28;20083;-92
2021/11/13 09:09:37;;;;;;;34.72;21.92;;;11.80;99.90;;;;;;5035620;28;20056;-91
2021/11/13 09:12:13;;;;;;;31.38;20.52;;;12.00;99.90;;;;;;5031979;28;20024;-91
2021/11/13 09:14:39;;;;;;;32.85;19.67;;;12.00;99.90;;;;;;5033316;28;20487;-91
2021/11/13 09:17:05;;;;;;;30.83;20.35;;;12.00;99.90;;;;;;5052944;28;20060;-91
2021/11/13 09:19:30;;;;;;;32.60;20.55;;;12.00;99.90;;;;;;5030723;28;20033;-91
2021/11/13 09:21:56;;;;;;;30.40;19.92;;;12.00;99.90;;;;;;5049199;28;20074;-90
2021/11/13 09:24:23;;;;;;;35.80;21.52;;;12.00;99.90;;;;;;5031486;28;20029;-89
2021/11/13 09:26:49;;;;;;;31.23;20.80;;;12.10;99.90;;;;;;5026613;28;20365;-88
2021/11/13 09:29:16;;;;;;;28.27;18.98;;;12.10;99.90;;;;;;5032149;28;20044;-88
2021/11/13 09:31:42;;;;;;;34.40;22.08;;;12.10;99.90;;;;;;5037457;28;20021;-90
2021/11/13 09:34:16;;;;;;;36.22;20.73;;;12.10;99.90;;;;;;5036634;28;20025;-90
2021/11/13 09:36:42;;;;;;;31.75;20.55;;;12.10;99.90;;;;;;5036916;28;20044;-90
2021/11/13 09:39:08;;;;;;;37.53;21.55;;;12.10;99.90;;;;;;5056576;28;20055;-90
2021/11/13 09:41:34;;;;;;;33.53;21.50;;;12.20;99.90;;;;;;5056767;28;20021;-90
2021/11/13 09:44:00;;;;;;;33.55;22.48;;;12.20;99.90;;;;;;5039430;28;20025;-90
2021/11/13 09:46:26;;;;;;;34.17;22.55;;;12.20;99.90;;;;;;5056418;28;20025;-89
2021/11/13 09:48:53;;;;;;;32.58;19.90;;;12.30;99.90;;;;;;5055902;28;20482;-89
2021/11/13 09:51:20;;;;;;;31.88;20.52;;;12.30;99.90;;;;;;5052487;28;20052;-88
2021/11/13 09:53:47;;;;;;;33.80;21.88;;;12.30;99.90;;;;;;5056416;28;20025;-89
2021/11/13 09:56:13;;;;;;;30.10;20.00;;;12.40;99.90;;;;;;5054548;28;20056;-89
2021/11/13 09:58:39;;;;;;;33.42;22.02;;;12.30;99.90;;;;;;5037447;28;20028;-89
2021/11/13 10:01:05;;;;;;;33.55;22.13;;;12.40;99.90;;;;;;5038531;28;20060;-89
2021/11/13 10:03:31;;;;;;;34.55;22.42;;;12.30;99.90;;;;;;5038195;28;20123;-89
2021/11/13 10:06:00;;;;;;;36.38;21.67;;;12.30;99.90;;;;;;5055161;28;20082;-89
2021/11/13 10:08:27;;;;;;;32.97;21.00;;;12.30;99.90;;;;;;5039118;28;20033;-89
2021/11/13 10:10:56;;;;;;;33.85;23.13;;;12.30;99.90;;;;;;5056623;28;20029;-89
2021/11/13 10:13:25;;;;;;;30.02;20.52;;;12.30;99.90;;;;;;5056780;28;20037;-89
2021/11/13 10:15:53;;;;;;;31.83;20.05;;;12.30;99.90;;;;;;5028596;28;20022;-89
2021/11/13 10:18:22;;;;;;;30.55;21.35;;;12.30;99.90;;;;;;5051735;28;20554;-89
2021/11/13 10:20:57;;;;;;;30.80;20.80;;;12.30;99.90;;;;;;5036210;28;20052;-89
2021/11/13 10:23:26;;;;;;;36.10;21.23;;;12.30;99.90;;;;;;5037995;28;20029;-88
2021/11/13 10:26:31;;;;;;;33.95;21.35;;;12.30;99.90;;;;;;5033077;28;20021;-88
2021/11/13 10:29:00;;;;;;;32.03;20.52;;;12.30;99.90;;;;;;5033581;28;20029;-88
2021/11/13 10:31:41;;;;;;;38.25;21.85;;;12.30;99.90;;;;;;5053529;28;20083;-88
2021/11/13 10:34:19;;;;;;;34.20;20.30;;;12.40;99.90;;;;;;5052338;28;20033;-89
2021/11/13 10:36:51;;;;;;;30.20;20.42;;;12.40;99.90;;;;;;5037046;28;20020;-89
2021/11/13 10:39:20;;;;;;;29.13;19.63;;;12.50;99.90;;;;;;5038186;28;20025;-89
2021/11/13 10:41:53;;;;;;;27.15;17.90;;;12.70;99.90;;;;;;5037418;28;20068;-87
2021/11/13 10:44:31;;;;;;;28.40;18.55;;;12.70;99.90;;;;;;5043015;28;20032;-87
2021/11/13 10:46:57;;;;;;;30.20;18.27;;;12.80;99.90;;;;;;5046323;28;20108;-88
2021/11/13 10:49:24;;;;;;;27.98;16.50;;;12.80;99.90;;;;;;5048365;28;20056;-88
2021/11/13 10:52:02;;;;;;;23.25;15.77;;;12.90;99.90;;;;;;5020689;28;20040;-88
2021/11/13 10:54:29;;;;;;;22.25;13.55;;;13.00;99.90;;;;;;5050873;28;20037;-88
2021/11/13 10:57:00;;;;;;;25.00;15.05;;;13.00;99.90;;;;;;5036441;28;20388;-87
2021/11/13 10:59:43;;;;;;;20.10;13.15;;;13.00;99.90;;;;;;5033274;28;20052;-87
2021/11/13 11:02:13;;;;;;;22.33;14.35;;;13.10;99.90;;;;;;5036664;28;20040;-88
2021/11/13 11:04:41;;;;;;;21.63;14.60;;;13.10;99.90;;;;;;5050143;28;20074;-87
2021/11/13 11:07:12;;;;;;;24.30;14.40;;;13.10;99.90;;;;;;5026797;28;20028;-87
2021/11/13 11:09:46;;;;;;;19.77;13.88;;;13.10;99.90;;;;;;5035349;28;20032;-88
2021/11/13 11:12:18;;;;;;;19.90;12.98;;;13.20;99.90;;;;;;5034788;28;20033;-87
2021/11/13 11:14:48;;;;;;;19.70;12.82;;;13.30;99.90;;;;;;5020619;28;20025;-88
2021/11/13 11:17:16;;;;;;;14.25;9.65;;;13.50;99.90;;;;;;5030956;28;20044;-86
2021/11/13 11:19:50;;;;;;;13.75;7.75;;;13.70;99.90;;;;;;5028780;28;20110;-87
2021/11/13 11:22:20;;;;;;;12.85;7.10;;;13.80;99.90;;;;;;5033040;28;20162;-88
2021/11/13 11:24:48;;;;;;;13.70;7.65;;;13.80;99.90;;;;;;5045968;28;20033;-88
2021/11/13 11:27:16;;;;;;;15.75;7.88;;;13.70;99.90;;;;;;5034478;28;20511;-88
2021/11/13 11:29:52;;;;;;;12.65;8.23;;;13.70;99.90;;;;;;5039116;28;20747;-88
2021/11/13 11:32:21;;;;;;;13.55;7.88;;;13.60;99.90;;;;;;5030557;28;20029;-88
2021/11/13 11:34:49;;;;;;;14.18;7.05;;;13.40;99.90;;;;;;5020224;28;20028;-89
2021/11/13 11:37:21;;;;;;;11.73;7.55;;;13.40;99.90;;;;;;5033647;28;20025;-87
2021/11/13 11:39:49;;;;;;;8.32;6.57;;;13.30;99.90;;;;;;5036878;28;20029;-89
2021/11/13 11:42:16;;;;;;;12.95;7.93;;;13.40;99.90;;;;;;5032037;28;20033;-88
2021/11/13 11:44:44;;;;;;;11.82;7.35;;;13.40;99.90;;;;;;5033888;28;20035;-86
2021/11/13 11:47:13;;;;;;;12.05;7.47;;;13.40;99.90;;;;;;5034675;28;20546;-88
2021/11/13 11:49:42;;;;;;;10.57;7.00;;;13.30;99.90;;;;;;5030838;28;20075;-88
2021/11/13 11:52:08;;;;;;;12.77;7.75;;;13.30;99.90;;;;;;5031401;28;20029;-88
2021/11/13 11:54:34;;;;;;;10.70;7.68;;;13.20;99.90;;;;;;5052340;28;20021;-89
2021/11/13 11:57:00;;;;;;;10.45;7.00;;;13.20;99.90;;;;;;5039990;28;20040;-89
2021/11/13 11:59:29;;;;;;;14.40;7.82;;;13.20;99.90;;;;;;5031212;28;20377;-89
2021/11/13 12:02:18;;;;;;;13.13;7.75;;;13.20;99.90;;;;;;5028429;28;20036;-88
2021/11/13 12:04:46;;;;;;;11.07;7.68;;;13.30;99.90;;;;;;5031236;28;20051;-89
2021/11/13 12:07:13;;;;;;;14.15;9.40;;;13.20;99.90;;;;;;5034876;28;20036;-89
2021/11/13 12:09:59;;;;;;;11.02;8.45;;;13.30;99.90;;;;;;5053396;28;20382;-89
2021/11/13 12:12:25;;;;;;;11.25;7.32;;;13.40;99.90;;;;;;5035268;28;20056;-89
2021/11/13 12:14:51;;;;;;;9.27;6.90;;;13.30;99.90;;;;;;5047331;28;20022;-89
2021/11/13 12:17:28;;;;;;;10.48;7.95;;;13.30;99.90;;;;;;5052639;28;20039;-89
2021/11/13 12:20:11;;;;;;;24.42;8.55;;;13.30;99.90;;;;;;5051693;28;20108;-88
2021/11/13 12:22:50;;;;;;;12.02;7.78;;;13.30;99.90;;;;;;5031989;28;20057;-89
2021/11/13 12:25:19;;;;;;;12.18;7.10;;;13.30;99.90;;;;;;5054319;28;20029;-89
2021/11/13 12:28:09;;;;;;;11.52;7.63;;;13.40;99.90;;;;;;5047271;28;20731;-89
2021/11/13 12:30:50;;;;;;;11.73;6.97;;;13.30;99.90;;;;;;5055777;28;20035;-88
2021/11/13 12:33:28;;;;;;;12.05;8.15;;;13.30;99.90;;;;;;5036551;28;20029;-89